createdAt,value
2023-05-18T00:00:29.152Z,1023.95
2023-05-18T00:01:29.103Z,1023.93
2023-05-18T00:02:29.186Z,1023.96
2023-05-18T00:03:29.360Z,1023.98
2023-05-18T00:04:29.187Z,1023.95
2023-05-18T00:05:29.353Z,1023.94
2023-05-18T00:06:29.064Z,1023.90
2023-05-18T00:07:29.078Z,1023.92
2023-05-18T00:08:29.065Z,1023.90
2023-05-18T00:09:29.022Z,1023.95
2023-05-18T00:10:29.153Z,1023.86
2023-05-18T00:11:28.983Z,1023.98
2023-05-18T00:12:29.018Z,1023.86
2023-05-18T00:13:28.977Z,1023.97
2023-05-18T00:14:28.950Z,1023.89
2023-05-18T00:15:29.231Z,1023.90
2023-05-18T00:16:28.959Z,1023.91
2023-05-18T00:17:28.967Z,1023.86
2023-05-18T00:18:28.908Z,1023.86
2023-05-18T00:19:28.865Z,1023.86
2023-05-18T00:20:28.863Z,1023.87
2023-05-18T00:21:28.862Z,1023.89
2023-05-18T00:22:28.870Z,1023.89
2023-05-18T00:23:28.859Z,1023.91
2023-05-18T00:24:28.824Z,1023.88
2023-05-18T00:25:29.017Z,1023.86
2023-05-18T00:26:28.799Z,1023.90
2023-05-18T00:27:28.793Z,1023.86
2023-05-18T00:28:28.783Z,1023.87
2023-05-18T00:29:28.769Z,1023.84
2023-05-18T00:30:28.751Z,1023.88
2023-05-18T00:31:28.780Z,1023.88
2023-05-18T00:32:28.775Z,1023.86
2023-05-18T00:33:28.742Z,1023.90
2023-05-18T00:34:28.683Z,1023.86
2023-05-18T00:35:28.880Z,1023.86
2023-05-18T00:36:28.661Z,1023.89
2023-05-18T00:37:28.637Z,1023.87
2023-05-18T00:38:28.672Z,1023.89
2023-05-18T00:39:28.712Z,1023.88
2023-05-18T00:40:28.670Z,1023.87
2023-05-18T00:41:28.584Z,1023.91
2023-05-18T00:42:28.613Z,1023.90
2023-05-18T00:43:28.557Z,1023.86
2023-05-18T00:44:28.594Z,1023.82
2023-05-18T00:45:28.678Z,1023.88
2023-05-18T00:46:28.721Z,1023.96
2023-05-18T00:47:28.543Z,1023.82
2023-05-18T00:48:28.537Z,1023.92
2023-05-18T00:49:28.507Z,1023.90
2023-05-18T00:50:28.489Z,1023.89
2023-05-18T00:51:28.501Z,1023.92
2023-05-18T00:52:28.462Z,1023.92
2023-05-18T00:53:28.462Z,1023.90
2023-05-18T00:54:28.443Z,1023.92
2023-05-18T00:55:28.875Z,1023.97
2023-05-18T00:56:28.447Z,1023.94
2023-05-18T00:57:28.410Z,1023.99
2023-05-18T00:58:28.414Z,1023.95
2023-05-18T00:59:28.397Z,1023.93
2023-05-18T01:00:28.363Z,1023.95
2023-05-18T01:01:28.402Z,1023.92
2023-05-18T01:02:28.413Z,1023.90
2023-05-18T01:03:28.371Z,1023.96
2023-05-18T01:04:28.347Z,1023.94
2023-05-18T01:05:28.486Z,1023.96
2023-05-18T01:06:28.297Z,1023.95
2023-05-18T01:07:28.314Z,1023.91
2023-05-18T01:08:28.301Z,1023.93
2023-05-18T01:09:28.335Z,1023.94
2023-05-18T01:10:28.251Z,1023.95
2023-05-18T01:11:28.296Z,1023.86
2023-05-18T01:12:28.214Z,1023.83
2023-05-18T01:13:28.224Z,1023.81
2023-05-18T01:14:30.537Z,1023.82
2023-05-18T01:15:28.397Z,1023.90
2023-05-18T01:16:28.233Z,1023.94
2023-05-18T01:17:28.211Z,1023.87
2023-05-18T01:18:28.154Z,1023.87
2023-05-18T01:19:28.162Z,1023.88
2023-05-18T01:20:28.099Z,1023.98
2023-05-18T01:21:28.122Z,1023.87
2023-05-18T01:22:28.070Z,1023.93
2023-05-18T01:23:28.046Z,1023.83
2023-05-18T01:24:28.061Z,1023.95
2023-05-18T01:25:28.200Z,1023.94
2023-05-18T01:26:28.052Z,1023.92
2023-05-18T01:27:28.037Z,1023.94
2023-05-18T01:28:28.024Z,1023.93
2023-05-18T01:29:28.039Z,1023.97
2023-05-18T01:30:28.003Z,1023.91
2023-05-18T01:31:28.074Z,1023.84
2023-05-18T01:32:27.983Z,1023.86
2023-05-18T01:33:27.953Z,1023.90
2023-05-18T01:34:27.939Z,1023.91
2023-05-18T01:35:28.245Z,1023.86
2023-05-18T01:36:27.919Z,1023.91
2023-05-18T01:37:27.893Z,1023.90
2023-05-18T01:38:27.896Z,1023.94
2023-05-18T01:39:27.902Z,1023.92
2023-05-18T01:40:27.850Z,1023.90
2023-05-18T01:41:27.822Z,1023.94
2023-05-18T01:42:27.813Z,1023.92
2023-05-18T01:43:27.789Z,1023.95
2023-05-18T01:44:27.809Z,1023.90
2023-05-18T01:45:27.929Z,1023.89
2023-05-18T01:46:27.833Z,1023.89
2023-05-18T01:47:27.812Z,1023.91
2023-05-18T01:48:27.742Z,1023.89
2023-05-18T01:49:27.784Z,1023.98
2023-05-18T01:50:27.764Z,1023.94
2023-05-18T01:51:27.694Z,1023.91
2023-05-18T01:52:27.693Z,1023.91
2023-05-18T01:53:27.654Z,1023.92
2023-05-18T01:54:27.655Z,1023.90
2023-05-18T01:55:27.709Z,1023.91
2023-05-18T01:56:27.619Z,1023.90
2023-05-18T01:57:27.628Z,1023.82
2023-05-18T01:58:27.623Z,1023.87
2023-05-18T01:59:27.598Z,1023.87
2023-05-18T02:00:27.654Z,1023.83
2023-05-18T02:01:27.587Z,1023.87
2023-05-18T02:02:27.701Z,1023.86
2023-05-18T02:03:27.637Z,1023.83
2023-05-18T02:04:27.539Z,1023.83
2023-05-18T02:05:27.578Z,1023.80
2023-05-18T02:06:27.542Z,1023.88
2023-05-18T02:07:27.504Z,1023.88
2023-05-18T02:08:27.544Z,1023.90
2023-05-18T02:09:27.471Z,1023.92
2023-05-18T02:10:27.507Z,1023.92
2023-05-18T02:11:27.463Z,1023.87
2023-05-18T02:12:27.477Z,1023.94
2023-05-18T02:13:27.452Z,1023.96
2023-05-18T02:14:27.412Z,1023.94
2023-05-18T02:15:27.579Z,1023.99
2023-05-18T02:16:27.399Z,1023.94
2023-05-18T02:17:27.429Z,1023.95
2023-05-18T02:18:27.336Z,1023.92
2023-05-18T02:19:27.403Z,1023.96
2023-05-18T02:20:29.723Z,1023.98
2023-05-18T02:21:27.368Z,1023.93
2023-05-18T02:22:27.302Z,1024.00
2023-05-18T02:23:27.300Z,1023.96
2023-05-18T02:24:27.292Z,1023.94
2023-05-18T02:25:27.264Z,1023.95
2023-05-18T02:26:27.287Z,1023.97
2023-05-18T02:27:27.230Z,1023.99
2023-05-18T02:28:27.230Z,1024.03
2023-05-18T02:29:27.231Z,1023.97
2023-05-18T02:30:27.277Z,1024.00
2023-05-18T02:31:27.214Z,1023.97
2023-05-18T02:32:27.186Z,1023.96
2023-05-18T02:33:27.142Z,1023.97
2023-05-18T02:34:27.177Z,1023.98
2023-05-18T02:35:27.173Z,1023.98
2023-05-18T02:36:27.147Z,1023.93
2023-05-18T02:37:27.124Z,1023.91
2023-05-18T02:38:27.104Z,1024.02
2023-05-18T02:39:27.113Z,1023.95
2023-05-18T02:40:27.139Z,1023.97
2023-05-18T02:41:27.025Z,1023.96
2023-05-18T02:42:27.063Z,1023.98
2023-05-18T02:43:27.025Z,1023.94
2023-05-18T02:44:27.046Z,1023.97
2023-05-18T02:45:27.049Z,1023.98
2023-05-18T02:46:27.084Z,1024.04
2023-05-18T02:47:26.995Z,1024.06
2023-05-18T02:48:26.978Z,1024.00
2023-05-18T02:49:26.928Z,1024.05
2023-05-18T02:50:26.946Z,1024.05
2023-05-18T02:51:26.922Z,1023.99
2023-05-18T02:52:26.915Z,1024.05
2023-05-18T02:53:26.932Z,1024.02
2023-05-18T02:54:26.929Z,1024.08
2023-05-18T02:55:26.914Z,1024.03
2023-05-18T02:56:26.899Z,1024.09
2023-05-18T03:00:57.431Z,1024.08
2023-05-18T03:01:57.333Z,1024.11
2023-05-18T03:03:05.432Z,1024.07
2023-05-18T03:03:57.336Z,1024.08
2023-05-18T03:04:57.357Z,1024.12
2023-05-18T03:05:57.280Z,1024.06
2023-05-18T03:06:57.409Z,1024.03
2023-05-18T03:07:57.290Z,1024.12
2023-05-18T03:08:57.279Z,1024.05
2023-05-18T03:09:57.287Z,1024.05
2023-05-18T03:10:57.252Z,1024.06
2023-05-18T03:11:57.215Z,1024.12
2023-05-18T03:12:57.179Z,1024.03
2023-05-18T03:13:57.211Z,1024.06
2023-05-18T03:14:57.223Z,1024.06
2023-05-18T03:15:57.155Z,1024.02
2023-05-18T03:16:57.206Z,1023.98
2023-05-18T03:17:57.182Z,1024.05
2023-05-18T03:18:57.173Z,1024.05
2023-05-18T03:19:57.138Z,1024.07
2023-05-18T03:20:57.124Z,1024.05
2023-05-18T03:21:57.109Z,1024.02
2023-05-18T03:22:57.056Z,1024.05
2023-05-18T03:23:57.155Z,1024.04
2023-05-18T03:24:57.069Z,1024.02
2023-05-18T03:25:57.042Z,1024.08
2023-05-18T03:26:57.020Z,1024.02
2023-05-18T03:27:57.032Z,1024.09
2023-05-18T03:28:57.023Z,1024.10
2023-05-18T03:29:56.998Z,1024.09
2023-05-18T03:30:57.049Z,1024.09
2023-05-18T03:31:57.041Z,1024.09
2023-05-18T03:32:56.961Z,1024.06
2023-05-18T03:33:56.968Z,1024.11
2023-05-18T03:34:56.977Z,1024.11
2023-05-18T03:35:56.930Z,1024.14
2023-05-18T03:36:56.929Z,1024.14
2023-05-18T03:37:56.908Z,1024.10
2023-05-18T03:38:56.873Z,1024.15
2023-05-18T03:39:56.916Z,1024.12
2023-05-18T03:40:56.918Z,1024.13
2023-05-18T03:41:56.859Z,1024.09
2023-05-18T03:42:56.827Z,1024.08
2023-05-18T03:43:56.819Z,1024.06
2023-05-18T03:44:56.809Z,1024.12
2023-05-18T03:45:56.846Z,1024.07
2023-05-18T03:46:56.789Z,1024.12
2023-05-18T03:47:56.798Z,1024.11
2023-05-18T03:48:56.762Z,1024.11
2023-05-18T03:49:56.753Z,1024.10
2023-05-18T03:50:56.736Z,1024.14
2023-05-18T03:51:56.727Z,1024.14
2023-05-18T03:52:56.688Z,1024.14
2023-05-18T03:53:56.703Z,1024.11
2023-05-18T03:54:56.690Z,1024.05
2023-05-18T03:55:56.676Z,1024.09
2023-05-18T03:56:56.647Z,1024.05
2023-05-18T03:57:56.654Z,1024.11
2023-05-18T03:58:56.624Z,1024.07
2023-05-18T03:59:56.613Z,1024.11
2023-05-18T04:00:56.614Z,1024.09
2023-05-18T04:01:56.639Z,1024.12
2023-05-18T04:02:56.644Z,1024.11
2023-05-18T04:03:56.830Z,1024.16
2023-05-18T04:04:56.568Z,1024.08
2023-05-18T04:05:56.572Z,1024.14
2023-05-18T04:06:56.532Z,1024.08
2023-05-18T04:07:56.538Z,1024.10
2023-05-18T04:08:56.512Z,1024.15
2023-05-18T04:09:56.467Z,1024.16
2023-05-18T04:10:56.492Z,1024.16
2023-05-18T04:11:56.446Z,1024.15
2023-05-18T04:12:56.454Z,1024.10
2023-05-18T04:13:56.423Z,1024.11
2023-05-18T04:14:56.423Z,1024.10
2023-05-18T04:15:56.403Z,1024.15
2023-05-18T04:16:56.482Z,1024.17
2023-05-18T04:17:56.395Z,1024.15
2023-05-18T04:18:56.416Z,1024.14
2023-05-18T04:19:56.375Z,1024.18
2023-05-18T04:20:56.359Z,1024.21
2023-05-18T04:21:56.298Z,1024.21
2023-05-18T04:22:56.392Z,1024.25
2023-05-18T04:23:56.280Z,1024.22
2023-05-18T04:24:56.277Z,1024.23
2023-05-18T04:25:56.271Z,1024.25
2023-05-18T04:26:56.262Z,1024.29
2023-05-18T04:27:56.250Z,1024.27
2023-05-18T04:28:56.240Z,1024.29
2023-05-18T04:29:56.201Z,1024.27
2023-05-18T04:30:56.197Z,1024.25
2023-05-18T04:31:56.198Z,1024.25
2023-05-18T04:32:56.202Z,1024.25
2023-05-18T04:33:56.175Z,1024.25
2023-05-18T04:34:56.173Z,1024.26
2023-05-18T04:35:56.163Z,1024.26
2023-05-18T04:36:56.138Z,1024.35
2023-05-18T04:37:56.120Z,1024.27
2023-05-18T04:38:56.134Z,1024.25
2023-05-18T04:39:56.121Z,1024.29
2023-05-18T04:40:56.074Z,1024.23
2023-05-18T04:41:56.084Z,1024.35
2023-05-18T04:42:56.085Z,1024.35
2023-05-18T04:43:56.061Z,1024.33
2023-05-18T04:44:56.067Z,1024.31
2023-05-18T04:45:56.089Z,1024.38
2023-05-18T04:46:56.010Z,1024.38
2023-05-18T04:47:56.032Z,1024.36
2023-05-18T04:48:56.011Z,1024.31
2023-05-18T04:49:55.943Z,1024.39
2023-05-18T04:50:55.980Z,1024.31
2023-05-18T04:51:55.931Z,1024.36
2023-05-18T04:52:55.947Z,1024.38
2023-05-18T04:53:55.899Z,1024.38
2023-05-18T04:54:55.931Z,1024.40
2023-05-18T04:55:55.911Z,1024.40
2023-05-18T04:56:55.890Z,1024.40
2023-05-18T04:57:55.897Z,1024.40
2023-05-18T04:58:55.873Z,1024.39
2023-05-18T04:59:55.863Z,1024.43
2023-05-18T05:00:55.869Z,1024.38
2023-05-18T05:01:55.894Z,1024.36
2023-05-18T05:02:55.945Z,1024.33
2023-05-18T05:03:58.167Z,1024.43
2023-05-18T05:04:55.790Z,1024.47
2023-05-18T05:05:55.764Z,1024.37
2023-05-18T05:06:55.773Z,1024.40
2023-05-18T05:07:55.837Z,1024.43
2023-05-18T05:08:55.724Z,1024.42
2023-05-18T05:09:55.702Z,1024.45
2023-05-18T05:10:55.686Z,1024.38
2023-05-18T05:11:55.700Z,1024.43
2023-05-18T05:12:55.739Z,1024.39
2023-05-18T05:13:55.634Z,1024.43
2023-05-18T05:14:55.661Z,1024.42
2023-05-18T05:15:55.675Z,1024.44
2023-05-18T05:16:55.660Z,1024.46
2023-05-18T05:17:55.623Z,1024.46
2023-05-18T05:18:55.657Z,1024.41
2023-05-18T05:19:55.568Z,1024.42
2023-05-18T05:20:55.584Z,1024.49
2023-05-18T05:21:55.547Z,1024.40
2023-05-18T05:22:55.634Z,1024.34
2023-05-18T05:23:55.541Z,1024.45
2023-05-18T05:24:55.513Z,1024.39
2023-05-18T05:25:55.503Z,1024.48
2023-05-18T05:26:55.475Z,1024.44
2023-05-18T05:27:55.465Z,1024.46
2023-05-18T05:28:55.505Z,1024.45
2023-05-18T05:29:55.464Z,1024.38
2023-05-18T05:30:55.464Z,1024.39
2023-05-18T05:31:55.513Z,1024.43
2023-05-18T05:32:55.485Z,1024.49
2023-05-18T05:33:55.423Z,1024.40
2023-05-18T05:34:55.374Z,1024.53
2023-05-18T05:35:55.367Z,1024.41
2023-05-18T05:36:55.384Z,1024.41
2023-05-18T05:37:55.354Z,1024.47
2023-05-18T05:38:55.386Z,1024.46
2023-05-18T05:39:55.299Z,1024.40
2023-05-18T05:40:55.313Z,1024.49
2023-05-18T05:41:55.316Z,1024.45
2023-05-18T05:42:55.308Z,1024.47
2023-05-18T05:43:55.425Z,1024.51
2023-05-18T05:44:55.263Z,1024.48
2023-05-18T05:45:55.225Z,1024.51
2023-05-18T05:46:55.308Z,1024.46
2023-05-18T05:47:55.301Z,1024.48
2023-05-18T05:48:55.201Z,1024.49
2023-05-18T05:49:55.205Z,1024.52
2023-05-18T05:50:55.184Z,1024.53
2023-05-18T05:51:55.195Z,1024.51
2023-05-18T05:52:55.151Z,1024.49
2023-05-18T05:53:55.153Z,1024.54
2023-05-18T05:54:55.191Z,1024.50
2023-05-18T05:55:55.125Z,1024.55
2023-05-18T05:56:55.127Z,1024.53
2023-05-18T05:57:55.113Z,1024.58
2023-05-18T05:58:55.084Z,1024.47
2023-05-18T05:59:55.092Z,1024.50
2023-05-18T06:00:55.073Z,1024.53
2023-05-18T06:01:55.087Z,1024.53
2023-05-18T06:02:55.087Z,1024.54
2023-05-18T06:03:55.050Z,1024.52
2023-05-18T06:04:55.066Z,1024.55
2023-05-18T06:05:55.020Z,1024.57
2023-05-18T06:06:55.012Z,1024.53
2023-05-18T06:07:54.991Z,1024.60
2023-05-18T06:08:54.994Z,1024.59
2023-05-18T06:09:54.996Z,1024.62
2023-05-18T06:10:54.968Z,1024.60
2023-05-18T06:11:54.925Z,1024.55
2023-05-18T06:12:54.951Z,1024.60
2023-05-18T06:13:54.875Z,1024.62
2023-05-18T06:14:54.869Z,1024.66
2023-05-18T06:15:54.896Z,1024.62
2023-05-18T06:16:54.892Z,1024.65
2023-05-18T06:17:54.953Z,1024.60
2023-05-18T06:18:54.878Z,1024.63
2023-05-18T06:19:54.807Z,1024.59
2023-05-18T06:20:54.806Z,1024.58
2023-05-18T06:21:54.765Z,1024.56
2023-05-18T06:22:54.853Z,1024.56
2023-05-18T06:23:54.762Z,1024.54
2023-05-18T06:24:54.750Z,1024.55
2023-05-18T06:25:54.741Z,1024.56
2023-05-18T06:26:54.748Z,1024.62
2023-05-18T06:27:54.699Z,1024.59
2023-05-18T06:28:54.715Z,1024.59
2023-05-18T06:29:54.708Z,1024.61
2023-05-18T06:30:54.665Z,1024.64
2023-05-18T06:31:54.746Z,1024.62
2023-05-18T06:32:54.691Z,1024.60
2023-05-18T06:33:54.615Z,1024.68
2023-05-18T06:34:54.635Z,1024.65
2023-05-18T06:35:54.656Z,1024.65
2023-05-18T06:36:54.677Z,1024.67
2023-05-18T06:37:54.609Z,1024.67
2023-05-18T06:38:54.586Z,1024.68
2023-05-18T06:39:54.553Z,1024.69
2023-05-18T06:40:54.536Z,1024.73
2023-05-18T06:41:54.571Z,1024.70
2023-05-18T06:42:54.546Z,1024.73
2023-05-18T06:43:54.493Z,1024.80
2023-05-18T06:44:54.486Z,1024.74
2023-05-18T06:45:54.531Z,1024.79
2023-05-18T06:46:54.550Z,1024.73
2023-05-18T06:47:54.520Z,1024.71
2023-05-18T06:48:54.465Z,1024.76
2023-05-18T06:49:54.407Z,1024.72
2023-05-18T06:50:54.432Z,1024.76
2023-05-18T06:51:54.431Z,1024.74
2023-05-18T06:52:54.409Z,1024.75
2023-05-18T06:53:54.430Z,1024.74
2023-05-18T06:54:54.402Z,1024.70
2023-05-18T06:55:54.376Z,1024.80
2023-05-18T06:56:54.367Z,1024.77
2023-05-18T06:57:54.332Z,1024.77
2023-05-18T06:58:54.369Z,1024.75
2023-05-18T06:59:54.294Z,1024.75
2023-05-18T07:00:54.322Z,1024.79
2023-05-18T07:01:54.315Z,1024.77
2023-05-18T07:02:54.285Z,1024.80
2023-05-18T07:03:54.305Z,1024.78
2023-05-18T07:04:54.259Z,1024.79
2023-05-18T07:05:54.227Z,1024.74
2023-05-18T07:06:54.222Z,1024.76
2023-05-18T07:07:54.238Z,1024.72
2023-05-18T07:08:54.214Z,1024.75
2023-05-18T07:09:54.213Z,1024.69
2023-05-18T07:10:54.164Z,1024.75
2023-05-18T07:11:54.168Z,1024.74
2023-05-18T07:12:54.156Z,1024.72
2023-05-18T07:13:54.154Z,1024.68
2023-05-18T07:14:54.099Z,1024.75
2023-05-18T07:15:54.152Z,1024.74
2023-05-18T07:16:54.095Z,1024.75
2023-05-18T07:17:54.136Z,1024.71
2023-05-18T07:18:54.080Z,1024.72
2023-05-18T07:19:54.083Z,1024.73
2023-05-18T07:20:54.025Z,1024.72
2023-05-18T07:21:54.047Z,1024.67
2023-05-18T07:22:53.996Z,1024.68
2023-05-18T07:23:53.999Z,1024.78
2023-05-18T07:24:54.017Z,1024.74
2023-05-18T07:25:53.987Z,1024.75
2023-05-18T07:26:53.965Z,1024.70
2023-05-18T07:27:53.917Z,1024.63
2023-05-18T07:28:53.924Z,1024.71
2023-05-18T07:29:53.981Z,1024.67
2023-05-18T07:30:53.962Z,1024.72
2023-05-18T07:31:53.943Z,1024.70
2023-05-18T07:32:53.944Z,1024.64
2023-05-18T07:33:53.864Z,1024.65
2023-05-18T07:34:53.880Z,1024.74
2023-05-18T07:35:53.845Z,1024.65
2023-05-18T07:36:53.818Z,1024.69
2023-05-18T07:37:53.815Z,1024.65
2023-05-18T07:38:53.784Z,1024.71
2023-05-18T07:39:53.805Z,1024.66
2023-05-18T07:40:53.822Z,1024.66
2023-05-18T07:41:53.737Z,1024.72
2023-05-18T07:42:53.747Z,1024.60
2023-05-18T07:43:53.738Z,1024.51
2023-05-18T07:44:53.735Z,1024.50
2023-05-18T07:45:53.727Z,1024.57
2023-05-18T07:46:53.764Z,1024.51
2023-05-18T07:47:53.679Z,1024.53
2023-05-18T07:48:53.693Z,1024.54
2023-05-18T07:49:53.666Z,1024.56
2023-05-18T07:50:53.675Z,1024.50
2023-05-18T07:51:53.624Z,1024.52
2023-05-18T07:52:53.608Z,1024.43
2023-05-18T07:53:53.616Z,1024.44
2023-05-18T07:54:53.591Z,1024.45
2023-05-18T07:55:53.597Z,1024.39
2023-05-18T07:56:53.582Z,1024.44
2023-05-18T07:57:53.533Z,1024.42
2023-05-18T07:58:53.581Z,1024.40
2023-05-18T07:59:53.519Z,1024.41
2023-05-18T08:00:53.553Z,1024.45
2023-05-18T08:01:53.523Z,1024.41
2023-05-18T08:02:53.694Z,1024.36
2023-05-18T08:03:53.547Z,1024.38
2023-05-18T08:04:53.511Z,1024.34
2023-05-18T08:05:53.469Z,1024.38
2023-05-18T08:06:53.459Z,1024.36
2023-05-18T08:07:53.445Z,1024.40
2023-05-18T08:08:53.441Z,1024.42
2023-05-18T08:09:53.378Z,1024.39
2023-05-18T08:10:53.408Z,1024.35
2023-05-18T08:11:53.361Z,1024.35
2023-05-18T08:12:53.443Z,1024.36
2023-05-18T08:13:53.334Z,1024.42
2023-05-18T08:14:53.367Z,1024.36
2023-05-18T08:16:07.210Z,1024.34
2023-05-18T08:16:54.309Z,1024.35
2023-05-18T08:17:53.321Z,1024.34
2023-05-18T08:18:53.333Z,1024.39
2023-05-18T08:19:53.252Z,1024.32
2023-05-18T08:20:53.248Z,1024.29
2023-05-18T08:21:53.231Z,1024.30
2023-05-18T08:22:53.562Z,1024.29
2023-05-18T08:23:53.303Z,1024.30
2023-05-18T08:24:53.201Z,1024.28
2023-05-18T08:25:53.233Z,1024.32
2023-05-18T08:26:53.174Z,1024.36
2023-05-18T08:27:53.209Z,1024.27
2023-05-18T08:28:53.148Z,1024.32
2023-05-18T08:29:53.137Z,1024.33
2023-05-18T08:30:53.140Z,1024.28
2023-05-18T08:31:53.168Z,1024.29
2023-05-18T08:32:53.139Z,1024.25
2023-05-18T08:33:53.120Z,1024.25
2023-05-18T08:34:53.123Z,1024.21
2023-05-18T08:35:53.108Z,1024.24
2023-05-18T08:36:53.053Z,1024.17
2023-05-18T08:37:53.063Z,1024.15
2023-05-18T08:38:53.050Z,1024.17
2023-05-18T08:39:53.075Z,1024.20
2023-05-18T08:40:53.087Z,1024.06
2023-05-18T08:41:53.084Z,1024.13
2023-05-18T08:42:52.979Z,1024.20
2023-05-18T08:43:53.031Z,1024.08
2023-05-18T08:44:52.981Z,1024.11
2023-05-18T08:45:52.915Z,1024.09
2023-05-18T08:46:52.897Z,1024.10
2023-05-18T08:47:52.940Z,1024.09
2023-05-18T08:48:53.015Z,1024.05
2023-05-18T08:49:52.929Z,1024.05
2023-05-18T08:50:52.852Z,1024.07
2023-05-18T08:51:52.842Z,1024.12
2023-05-18T08:52:52.844Z,1024.06
2023-05-18T08:53:52.831Z,1024.02
2023-05-18T08:54:52.856Z,1024.13
2023-05-18T08:55:52.840Z,1024.13
2023-05-18T08:56:52.805Z,1024.05
2023-05-18T08:57:52.792Z,1024.02
2023-05-18T08:58:52.753Z,1024.06
2023-05-18T08:59:52.771Z,1024.07
2023-05-18T09:00:52.718Z,1024.08
2023-05-18T09:01:52.778Z,1024.08
2023-05-18T09:02:52.733Z,1024.05
2023-05-18T09:03:52.680Z,1024.06
2023-05-18T09:04:52.760Z,1024.01
2023-05-18T09:05:52.700Z,1024.08
2023-05-18T09:06:52.631Z,1024.07
2023-05-18T09:07:52.634Z,1024.07
2023-05-18T09:08:52.608Z,1024.04
2023-05-18T09:09:52.627Z,1024.02
2023-05-18T09:10:52.627Z,1023.98
2023-05-18T09:11:52.598Z,1023.99
2023-05-18T09:12:52.593Z,1023.98
2023-05-18T09:13:52.606Z,1024.05
2023-05-18T09:14:52.536Z,1024.02
2023-05-18T09:15:52.638Z,1023.97
2023-05-18T09:16:52.512Z,1023.94
2023-05-18T09:17:52.592Z,1024.01
2023-05-18T09:18:52.595Z,1023.98
2023-05-18T09:19:52.513Z,1023.99
2023-05-18T09:20:52.481Z,1024.00
2023-05-18T09:21:52.504Z,1024.00
2023-05-18T09:22:52.481Z,1023.99
2023-05-18T09:23:52.470Z,1023.96
2023-05-18T09:24:52.431Z,1024.00
2023-05-18T09:25:52.425Z,1024.00
2023-05-18T09:26:52.449Z,1023.99
2023-05-18T09:27:52.410Z,1024.01
2023-05-18T09:28:52.379Z,1023.94
2023-05-18T09:29:52.385Z,1023.98
2023-05-18T09:30:52.346Z,1023.97
2023-05-18T09:31:52.364Z,1024.03
2023-05-18T09:32:52.406Z,1024.06
2023-05-18T09:33:52.409Z,1023.99
2023-05-18T09:34:52.304Z,1023.98
2023-05-18T09:35:52.293Z,1023.99
2023-05-18T09:36:52.248Z,1023.92
2023-05-18T09:37:52.264Z,1023.97
2023-05-18T09:38:52.243Z,1024.03
2023-05-18T09:39:52.267Z,1024.02
2023-05-18T09:40:52.235Z,1023.98
2023-05-18T09:41:52.225Z,1024.00
2023-05-18T09:42:52.202Z,1023.96
2023-05-18T09:43:52.186Z,1024.00
2023-05-18T09:44:52.159Z,1023.96
2023-05-18T09:45:52.194Z,1023.89
2023-05-18T09:46:52.141Z,1023.96
2023-05-18T09:47:52.198Z,1023.92
2023-05-18T09:48:52.117Z,1023.86
2023-05-18T09:49:52.101Z,1023.90
2023-05-18T09:50:52.103Z,1023.92
2023-05-18T09:51:52.102Z,1023.87
2023-05-18T09:52:52.107Z,1023.91
2023-05-18T09:53:52.083Z,1023.90
2023-05-18T09:54:52.030Z,1023.85
2023-05-18T09:55:52.055Z,1023.88
2023-05-18T09:57:02.418Z,1023.82
2023-05-18T09:57:53.031Z,1023.86
2023-05-18T09:58:51.979Z,1023.86
2023-05-18T09:59:52.001Z,1023.84
2023-05-18T10:00:52.211Z,1023.86
2023-05-18T10:01:51.961Z,1023.81
2023-05-18T10:02:51.962Z,1023.85
2023-05-18T10:03:51.981Z,1023.84
2023-05-18T10:04:51.985Z,1023.87
2023-05-18T10:05:51.948Z,1023.84
2023-05-18T10:06:51.856Z,1023.83
2023-05-18T10:07:51.863Z,1023.90
2023-05-18T10:08:51.875Z,1023.88
2023-05-18T10:09:51.882Z,1023.83
2023-05-18T10:10:51.874Z,1023.88
2023-05-18T10:11:51.842Z,1023.85
2023-05-18T10:12:51.810Z,1023.78
2023-05-18T10:13:51.871Z,1023.71
2023-05-18T10:14:51.792Z,1023.71
2023-05-18T10:15:51.855Z,1023.73
2023-05-18T10:16:57.342Z,1023.65
2023-05-18T10:17:52.865Z,1023.69
2023-05-18T10:18:51.805Z,1023.69
2023-05-18T10:19:51.743Z,1023.66
2023-05-18T10:20:51.747Z,1023.66
2023-05-18T10:21:51.710Z,1023.59
2023-05-18T10:22:51.676Z,1023.52
2023-05-18T10:23:51.719Z,1023.58
2023-05-18T10:24:51.661Z,1023.57
2023-05-18T10:25:51.674Z,1023.60
2023-05-18T10:26:53.653Z,1023.54
2023-05-18T10:27:51.640Z,1023.60
2023-05-18T10:28:51.588Z,1023.60
2023-05-18T10:29:51.585Z,1023.51
2023-05-18T10:30:51.632Z,1023.56
2023-05-18T10:31:51.590Z,1023.55
2023-05-18T10:32:51.590Z,1023.51
2023-05-18T10:33:51.623Z,1023.53
2023-05-18T10:34:51.547Z,1023.49
2023-05-18T10:35:51.565Z,1023.54
2023-05-18T10:36:51.508Z,1023.51
2023-05-18T10:37:51.494Z,1023.46
2023-05-18T10:38:51.502Z,1023.49
2023-05-18T10:39:51.455Z,1023.49
2023-05-18T10:40:51.485Z,1023.40
2023-05-18T10:41:51.475Z,1023.42
2023-05-18T10:42:51.442Z,1023.41
2023-05-18T10:43:51.430Z,1023.41
2023-05-18T10:44:51.410Z,1023.40
2023-05-18T10:45:51.462Z,1023.42
2023-05-18T10:46:51.469Z,1023.41
2023-05-18T10:47:51.493Z,1023.42
2023-05-18T10:48:51.347Z,1023.33
2023-05-18T10:49:51.336Z,1023.37
2023-05-18T10:50:51.365Z,1023.38
2023-05-18T10:51:51.341Z,1023.39
2023-05-18T10:52:51.311Z,1023.38
2023-05-18T10:53:51.997Z,1023.38
2023-05-18T10:54:51.324Z,1023.41
2023-05-18T10:55:51.262Z,1023.36
2023-05-18T10:56:51.328Z,1023.35
2023-05-18T10:57:51.262Z,1023.27
2023-05-18T10:58:51.231Z,1023.28
2023-05-18T10:59:51.222Z,1023.28
2023-05-18T11:00:51.227Z,1023.23
2023-05-18T11:01:51.271Z,1023.27
2023-05-18T11:02:51.286Z,1023.33
2023-05-18T11:03:51.178Z,1023.32
2023-05-18T11:04:53.931Z,1023.26
2023-05-18T11:05:51.141Z,1023.36
2023-05-18T11:06:51.132Z,1023.28
2023-05-18T11:07:51.093Z,1023.30
2023-05-18T11:08:51.090Z,1023.21
2023-05-18T11:09:51.100Z,1023.22
2023-05-18T11:10:51.127Z,1023.22
2023-05-18T11:11:51.093Z,1023.16
2023-05-18T11:12:51.051Z,1023.14
2023-05-18T11:13:51.035Z,1023.17
2023-05-18T11:14:51.028Z,1023.15
2023-05-18T11:15:51.085Z,1023.15
2023-05-18T11:16:51.069Z,1023.16
2023-05-18T11:17:51.025Z,1023.17
2023-05-18T11:18:51.046Z,1023.14
2023-05-18T11:19:50.953Z,1023.10
2023-05-18T11:20:50.963Z,1023.10
2023-05-18T11:21:50.929Z,1023.07
2023-05-18T11:22:50.917Z,1023.14
2023-05-18T11:23:50.931Z,1023.08
2023-05-18T11:24:50.897Z,1023.06
2023-05-18T11:25:50.926Z,1023.03
2023-05-18T11:26:50.856Z,1023.04
2023-05-18T11:27:50.853Z,1022.98
2023-05-18T11:28:50.841Z,1023.00
2023-05-18T11:29:57.800Z,1023.03
2023-05-18T11:30:51.841Z,1023.00
2023-05-18T11:31:50.865Z,1023.01
2023-05-18T11:32:50.859Z,1022.98
2023-05-18T11:33:50.782Z,1022.99
2023-05-18T11:34:50.781Z,1022.96
2023-05-18T11:35:50.807Z,1023.03
2023-05-18T11:36:50.759Z,1023.01
2023-05-18T11:37:50.718Z,1022.94
2023-05-18T11:38:50.769Z,1022.95
2023-05-18T11:39:58.590Z,1022.94
2023-05-18T11:40:51.674Z,1022.98
2023-05-18T11:41:50.694Z,1023.01
2023-05-18T11:42:50.631Z,1022.96
2023-05-18T11:43:50.676Z,1022.91
2023-05-18T11:44:50.641Z,1022.93
2023-05-18T11:45:50.639Z,1022.91
2023-05-18T11:46:50.626Z,1022.93
2023-05-18T11:47:50.658Z,1022.94
2023-05-18T11:48:50.965Z,1022.99
2023-05-18T11:49:50.586Z,1022.96
2023-05-18T11:50:50.564Z,1022.94
2023-05-18T11:51:50.545Z,1022.92
2023-05-18T11:52:50.537Z,1022.86
2023-05-18T11:53:50.520Z,1022.85
2023-05-18T11:54:50.525Z,1022.86
2023-05-18T11:55:50.480Z,1022.87
2023-05-18T11:56:50.475Z,1022.93
2023-05-18T11:57:50.478Z,1022.84
2023-05-18T11:58:50.427Z,1022.91
2023-05-18T11:59:50.424Z,1022.84
2023-05-18T12:00:50.445Z,1022.85
2023-05-18T12:01:50.433Z,1022.81
2023-05-18T12:02:50.574Z,1022.77
2023-05-18T12:03:50.422Z,1022.75
2023-05-18T12:04:50.377Z,1022.78
2023-05-18T12:05:50.391Z,1022.75
2023-05-18T12:06:50.331Z,1022.77
2023-05-18T12:07:50.337Z,1022.74
2023-05-18T12:08:50.304Z,1022.73